Mt. Lincoln Summit Weather observations

Data are for 10 minute period ending at time listed.
 Day   Time   Solar   Ave.   Ave.  Ave.  Vector    Max.   Stn.  
  of    of     Rad.   Air    Rel.  Wind   Wind     Wind   Baro.  
Year   Day            Temp.  Hum.  Speed  Dir.     Gust   Pres. 
2015   (PST)   W/m2    F      %     mph   deg.      mph    mb    
-----------------------------------------------------------------
 141    4:30  999.0    32   79.8    22    169.6    26.7   569.80
 141    4:40  999.0    33   79.8    21    166.3    24.3   566.10
 141    4:50  999.0    33   79.7    16    166.4    19.0   559.30
 141    5:00  999.0    33   79.6    15    165.7    18.2   558.30
 141    5:10  999.0    34   79.6    18    163.6    21.5   559.40
 141    5:20  999.0    35   79.3    15    156.7    20.4   560.60
 141    5:30  999.0    37   78.4    17    130.3    22.6   564.60
 141    5:40  999.0    38   76.8    22    126.2    28.0   567.10
 141    5:50  999.0    40   75.2    26    110.2    34.1   564.30
 141    6:00  999.0    39   73.8    28    110.5    34.8   565.20
 141    6:10  999.0    36   74.6    28    107.4    33.5   562.80
 141    6:20  999.0    34   75.8    34    109.3    42.1   567.10
 141    6:30  999.0    34   76.3    32    108.8    40.2   568.60
 141    6:40  999.0    35   76.3    32    115.9    42.1   568.40
 141    6:50  999.0    35   76.5    32    113.3    39.0   566.80
 141    7:00  999.0    37   76.6    28    107.6    39.0   567.50
 141    7:10  999.0    40   75.3    27    107.7    36.7   571.90
 141    7:20  999.0    42   73.9    21    108.0    35.7   571.10
 141    7:30  999.0    41   73.5    28    111.8    41.3   571.20
 141    7:40  999.0    40   74.1    26    113.4    36.4   570.80
 141    7:50  999.0    39   74.7    18    106.4    25.4   565.70
 141    8:00  999.0    40   75.0    20    100.2    26.8   562.50
 141    8:10  999.0    41   74.3    21    120.5    31.1   567.40
 141    8:20  999.0    41   74.2    19    122.0    28.7   564.80
 141    8:30  999.0    42   74.3    25    126.7    35.3   570.10
 141    8:40  999.0    45   72.9    22    136.5    34.5   567.40
 141    8:50  999.0    44   72.4    14    126.6    24.4   564.90
 141    9:00  999.0    43   73.5    14    109.9    20.0   563.60
 141    9:10  999.0    42   74.1    19    106.2    30.1   570.50
 141    9:20  999.0    42   74.4     9    116.4    20.6   574.70
 141    9:30  999.0    42   75.1    10    113.9    18.9   572.10
 141    9:40  999.0    42   75.5    14     99.6    26.2   573.60
 141    9:50  999.0    45   75.1    18    108.3    25.3   576.80
 141   10:00  999.0    45   74.0    20     85.5    35.0   577.30
 141   10:10  999.0    44   74.7    20    108.2    36.9   575.30
 141   10:20  999.0    45   74.0    17    139.3    27.6   573.90
 141   10:30  999.0    42   72.7    20    226.9    32.6   574.40
 141   10:40  999.0    36   74.4    19    249.8    32.2   573.90
 141   10:50  999.0    35   76.0    31    245.8    42.3   582.40
 141   11:00  999.0    34   76.9    33    249.2    40.1   586.00
 141   11:10  999.0    34   77.4    22    263.2    33.6   582.10
 141   11:20  999.0    34   77.6    13    277.5    19.5   579.60
 141   11:30  999.0    34   77.7    12    290.2    18.5   579.20
 141   11:40  999.0    34   77.6    11    227.5    26.8   574.80
 141   11:50  999.0    34   77.5    33    233.9    41.5   581.60
 141   12:00  999.0    33   77.4    38    221.0    47.1   583.50
 141   12:10  999.0    32   77.6    46    225.6    52.7   588.60
 141   12:20  999.0    32   77.8    40    231.5    49.7   582.10
 141   12:30  999.0    33   78.0    28    232.6    35.2   578.40
 141   12:40  999.0    33   78.2    27    224.9    34.7   577.60
 141   12:50  999.0    34   77.9    30    219.3    37.7   578.40
 141   13:00  999.0    34   77.5    28    218.4    39.7   580.20
 141   13:10  999.0    34   77.7    21    203.6    31.6   577.40
 141   13:20  999.0    34   77.4    20    200.0    26.1   574.30
 141   13:30  999.0    35   77.3    17    205.3    23.3   573.10
 141   13:40  999.0    35   77.2    15    215.0    20.2   573.00
 141   13:50  999.0    35   77.3    13    235.0    19.3   572.90
 141   14:00  999.0    35   77.5    12    259.0    26.2   569.80
 141   14:10  999.0    35   77.7     8    276.8    18.2   572.80
 141   14:20  999.0    35   77.8    11    265.5    18.5   568.10
 141   14:30  999.0    35   77.8    13    269.2    19.4   568.30
 141   14:40  999.0    34   78.0    13    293.1    24.4   567.00
 141   14:50  999.0    34   77.9    33    311.5    51.5   576.80
 141   15:00  999.0    33   78.1    30    304.9    46.6   578.60
 141   15:10  999.0    33   78.3    27    303.6    43.2   580.30
 141   15:20  999.0    33   78.4    27    298.6    44.9   580.30
 141   15:30  999.0    33   78.5    22    304.5    34.1   577.70
 141   15:40  999.0    33   78.3    28    303.8    39.9   580.30
 141   15:50  999.0    33   78.5    27    305.3    47.2   579.60
 141   16:00  999.0    33   78.5    29    299.8    39.8   579.90
 141   16:10  999.0    33   78.5    29    299.6    53.4   579.60
 141   16:20  999.0    33   78.6    30    300.4    45.1   579.50
 141   16:30  999.0    33   78.7    32    303.1    52.8   578.30
 141   16:40  999.0    33   78.7    31    300.0    43.6   579.40
 141   16:50  999.0    34   78.8    32    305.3    48.0   579.00
 141   17:00  999.0    34   78.7    42    307.6    55.3   581.70
 141   17:10  999.0    33   78.7    37    304.0    56.2   582.40
 141   17:20  999.0    34   78.8    37    302.5    52.0   579.00
 141   17:30  999.0    34   78.8    34    303.0    47.8   578.50
 141   17:40  999.0    34   78.7    28    306.6    37.4   573.80
 141   17:50  999.0    33   78.6    30    309.9    38.6   573.00
 141   18:00  999.0    33   78.7    32    316.3    50.1   573.60
 141   18:10  999.0    33   78.7    29    310.7    41.4   574.20
 141   18:20  999.0    33   78.7    31    317.9    40.5   576.50
 141   18:30  999.0    32   78.7    32    316.4    43.9   577.00
 141   18:40  999.0    32   78.7    30    311.9    41.0   576.50
 141   18:50  999.0    32   78.7    28    307.5    35.0   577.40
 141   19:00  999.0    32   78.7    23    306.1    35.8   575.50
 141   19:10  999.0    32   78.7    23    308.8    29.4   577.40
 141   19:20  999.0    32   78.7    29    312.7    36.1   573.20
 141   19:30  999.0    32   78.7    28    313.4    35.5   571.80
 141   19:40  999.0    32   78.7    32    307.4    43.0   569.40
 141   19:50  999.0    32   78.7    30    303.9    38.5   571.00
 141   20:00  999.0    32   78.7    33    307.7    37.4   573.90
 141   20:10  999.0    32   78.7    30    309.4    34.6   573.60
 141   20:20  999.0    32   78.7    23    302.3    29.6   572.90
 141   20:30  999.0    32   78.8    27    304.9    36.2   568.00
 141   20:40  999.0    32   78.8    24    299.4    36.9   566.30
 141   20:50  999.0    32   78.8    24    303.6    34.4   573.20
 141   21:00  999.0    33   78.8    26    298.8    34.9   573.40
 141   21:10  999.0    33   78.8    18    294.3    28.8   567.70
 141   21:20  999.0    33   78.8    21    300.4    32.2   564.20
 141   21:30  999.0    33   78.9    21    301.6    31.5   565.90
 141   21:40  999.0    33   78.9    29    303.5    42.8   564.50
 141   21:50  999.0    33   78.9    25    308.4    31.5   566.90
 141   22:00  999.0    33   78.9    25    310.8    32.4   567.40
 141   22:10  999.0    33   78.8    26    313.8    30.5   568.50
 141   22:20  999.0    33   78.9    24    324.0    30.3   568.90
 141   22:30  999.0    33   78.9    22    328.6    27.6   569.30
 141   22:40  999.0    33   78.9    28    325.5    32.5   570.20
 141   22:50  999.0    33   78.9    27    322.4    30.0   572.30
 141   23:00  999.0    33   78.9    28    324.6    34.0   572.30
 141   23:10  999.0    33   78.9    26    320.1    31.7   574.70
 141   23:20  999.0    33   78.9    28    320.2    34.7   573.90
 141   23:30  999.0    33   78.9    26    322.7    31.4   572.40
 141   23:40  999.0    33   78.9    28    325.8    32.4   573.60
 141   23:50  999.0    33   79.0    34    329.5    42.0   576.50
 142    0:00  999.0    33   79.0    31    327.5    38.2   573.60
 142    0:10  999.0    33   79.0    30    325.1    36.8   574.40
 142    0:20  999.0    33   79.0    32    325.8    38.1   575.20
 142    0:30  999.0    33   79.1    31    326.4    36.4   570.50
 142    0:40  999.0    33   79.0    29    325.9    34.3   567.30
 142    0:50  999.0    33   79.1    27    329.3    35.1   569.20
 142    1:00  999.0    33   79.1    26    329.8    31.6   569.20
 142    1:10  999.0    33   79.1    23    336.2    30.3   567.00
 142    1:20  999.0    33   79.0    20    339.9    27.0   565.90
 142    1:30  999.0    33   79.0    12    343.3    15.3   568.10
 142    1:40  999.0    33   78.9    10      7.1    14.4   562.10
 142    1:50  999.0    33   78.9    11    357.0    15.6   565.30
 142    2:00  999.0    33   78.9     6     27.9     9.8   562.40
 142    2:10  999.0    33   78.8     5     27.9    18.2   559.60
 142    2:20  999.0    33   78.9    18     25.7    30.6   566.30
 142    2:30  999.0    33   79.0    24     22.4    32.1   571.20
 142    2:40  999.0    33   79.0    22    353.4    27.2   573.40
 142    2:50  999.0    33   79.0    25    348.4    38.9   574.60
 142    3:00  999.0    33   79.0    28    353.8    39.2   575.80
 142    3:10  999.0    33   79.0    25    354.6    34.4   573.20
 142    3:20  999.0    33   79.0    22      2.0    27.5   569.20
 142    3:30  999.0    33   79.0    25     10.3    32.0   568.90
 142    3:40  999.0    33   79.0    28      8.6    33.0   565.80
 142    3:50  999.0    33   79.0    26      8.1    33.1   569.00
 142    4:00  999.0    33   79.0    25     10.2    38.5   570.60
 142    4:10  999.0    33   79.0    28     19.2    35.6   570.00
 142    4:20  999.0    33   79.0    30     13.1    39.8   568.00

Return to Mt. Lincoln graphs page.


Western Regional Climate Center,wrcc@dri.edu